createdAt,value
2018-06-05T00:01:15.368Z,100795.70
2018-06-05T00:03:47.137Z,100794.48
2018-06-05T00:06:16.997Z,100789.30
2018-06-05T00:08:47.986Z,100793.23
2018-06-05T00:11:18.867Z,100794.20
2018-06-05T00:13:48.925Z,100799.45
2018-06-05T00:16:19.497Z,100800.98
2018-06-05T00:18:49.273Z,100801.84
2018-06-05T00:21:19.420Z,100798.14
2018-06-05T00:23:49.100Z,100807.80
2018-06-05T00:26:18.844Z,100805.02
2018-06-05T00:28:48.773Z,100804.30
2018-06-05T00:31:18.585Z,100800.08
2018-06-05T00:33:48.281Z,100798.56
2018-06-05T00:36:18.035Z,100805.97
2018-06-05T00:38:47.843Z,100801.22
2018-06-05T00:41:17.518Z,100797.39
2018-06-05T00:43:48.048Z,100798.15
2018-06-05T00:46:20.558Z,100804.45
2018-06-05T00:48:50.227Z,100809.29
2018-06-05T00:51:36.878Z,100811.52
2018-06-05T00:54:08.309Z,100805.66
2018-06-05T00:56:38.602Z,100809.17
2018-06-05T00:59:07.968Z,100805.12
2018-06-05T01:01:37.648Z,100804.11
2018-06-05T01:04:07.461Z,100803.73
2018-06-05T01:06:37.337Z,100806.73
2018-06-05T01:09:10.131Z,100803.25
2018-06-05T01:11:39.423Z,100800.23
2018-06-05T01:14:09.066Z,100806.08
2018-06-05T01:16:38.680Z,100801.06
2018-06-05T01:19:08.963Z,100790.23
2018-06-05T01:21:38.855Z,100799.41
2018-06-05T01:24:09.421Z,100794.98
2018-06-05T01:26:39.397Z,100794.75
2018-06-05T01:29:09.062Z,100798.30
2018-06-05T01:31:38.637Z,100800.83
2018-06-05T01:34:08.300Z,100800.39
2018-06-05T01:36:38.056Z,100781.67
2018-06-05T01:39:10.134Z,100783.70
2018-06-05T01:41:40.373Z,100777.88
2018-06-05T01:44:10.052Z,100777.32
2018-06-05T01:46:39.693Z,100784.58
2018-06-05T01:49:09.503Z,100782.83
2018-06-05T01:51:39.163Z,100779.45
2018-06-05T01:54:08.784Z,100778.98
2018-06-05T01:56:38.512Z,100781.34
2018-06-05T01:59:08.784Z,100780.28
2018-06-05T02:01:38.395Z,100777.78
2018-06-05T02:04:08.034Z,100771.11
2018-06-05T02:06:37.676Z,100781.72
2018-06-05T02:09:09.479Z,100772.52
2018-06-05T02:11:39.152Z,100778.23
2018-06-05T02:14:08.789Z,100771.48
2018-06-05T02:17:41.634Z,100771.17
2018-06-05T02:20:11.239Z,100774.46
2018-06-05T02:22:40.907Z,100767.52
2018-06-05T02:25:10.584Z,100769.16
2018-06-05T02:27:40.186Z,100762.77
2018-06-05T02:30:09.869Z,100760.23
2018-06-05T02:32:39.756Z,100756.56
2018-06-05T02:35:09.479Z,100760.09
2018-06-05T02:37:38.792Z,100758.52
2018-06-05T02:40:08.383Z,100759.48
2018-06-05T02:42:38.399Z,100758.79
2018-06-05T02:45:08.072Z,100752.31
2018-06-05T02:47:38.594Z,100752.18
2018-06-05T02:50:08.180Z,100756.02
2018-06-05T02:52:37.853Z,100763.58
2018-06-05T02:55:08.157Z,100766.70
2018-06-05T02:57:38.889Z,100763.00
2018-06-05T03:00:08.563Z,100763.83
2018-06-05T03:02:39.036Z,100756.73
2018-06-05T03:05:08.737Z,100760.64
2018-06-05T03:07:38.579Z,100763.92
2018-06-05T03:10:08.482Z,100761.02
2018-06-05T03:12:38.347Z,100761.67
2018-06-05T03:15:08.140Z,100764.37
2018-06-05T03:17:38.610Z,100767.13
2018-06-05T03:20:09.372Z,100771.48
2018-06-05T03:22:39.125Z,100771.66
2018-06-05T03:25:09.382Z,100774.56
2018-06-05T03:27:39.053Z,100776.88
2018-06-05T03:31:38.586Z,100780.78
2018-06-05T03:34:08.697Z,100776.64
2018-06-05T03:36:38.429Z,100778.94
2018-06-05T03:39:08.442Z,100781.20
2018-06-05T03:41:38.909Z,100784.66
2018-06-05T03:44:09.479Z,100784.02
2018-06-05T03:46:39.265Z,100795.71
2018-06-05T03:49:10.704Z,100792.77
2018-06-05T03:51:41.777Z,100788.39
2018-06-05T03:54:11.725Z,100793.45
2018-06-05T03:56:43.011Z,100798.98
2018-06-05T03:59:13.354Z,100801.42
2018-06-05T04:01:43.820Z,100792.42
2018-06-05T04:04:14.913Z,100796.65
2018-06-05T04:06:44.732Z,100802.09
2018-06-05T04:09:15.105Z,100799.67
2018-06-05T04:11:44.765Z,100797.53
2018-06-05T04:14:15.341Z,100805.39
2018-06-05T04:16:45.367Z,100813.03
2018-06-05T04:19:15.929Z,100813.77
2018-06-05T04:21:45.714Z,100811.11
2018-06-05T04:24:15.986Z,100806.52
2018-06-05T04:26:45.772Z,100813.16
2018-06-05T04:29:15.552Z,100810.98
2018-06-05T04:31:46.275Z,100805.37
2018-06-05T04:34:18.441Z,100811.85
2018-06-05T04:36:48.253Z,100807.85
2018-06-05T04:39:19.348Z,100812.80
2018-06-05T04:41:49.096Z,100810.14
2018-06-05T04:44:19.416Z,100814.73
2018-06-05T04:46:49.725Z,100814.28
2018-06-05T04:49:22.198Z,100816.89
2018-06-05T04:51:52.871Z,100819.20
2018-06-05T04:54:22.561Z,100821.15
2018-06-05T04:56:52.745Z,100824.08
2018-06-05T04:59:24.663Z,100821.72
2018-06-05T05:01:55.352Z,100812.63
2018-06-05T05:04:25.478Z,100811.61
2018-06-05T05:06:55.517Z,100809.86
2018-06-05T05:09:26.067Z,100816.58
2018-06-05T05:11:55.715Z,100819.48
2018-06-05T05:14:26.344Z,100810.83
2018-06-05T05:16:56.305Z,100809.73
2018-06-05T05:19:26.408Z,100808.47
2018-06-05T05:21:56.295Z,100807.03
2018-06-05T05:24:26.769Z,100811.90
2018-06-05T05:26:57.767Z,100814.26
2018-06-05T05:29:27.505Z,100818.50
2018-06-05T05:31:57.223Z,100820.02
2018-06-05T05:34:27.456Z,100820.45
2018-06-05T05:36:57.460Z,100830.33
2018-06-05T05:39:27.128Z,100833.41
2018-06-05T05:41:57.316Z,100829.58
2018-06-05T05:44:29.314Z,100825.39
2018-06-05T05:46:59.792Z,100829.73
2018-06-05T05:49:29.514Z,100830.39
2018-06-05T05:52:00.721Z,100833.28
2018-06-05T05:54:31.503Z,100837.39
2018-06-05T05:57:01.373Z,100839.66
2018-06-05T05:59:34.604Z,100834.38
2018-06-05T06:02:05.371Z,100839.45
2018-06-05T06:04:36.694Z,100844.13
2018-06-05T06:07:07.519Z,100846.06
2018-06-05T06:09:37.493Z,100845.83
2018-06-05T06:12:07.259Z,100849.89
2018-06-05T06:14:36.932Z,100852.66
2018-06-05T06:17:06.683Z,100851.94
2018-06-05T06:19:36.561Z,100852.91
2018-06-05T06:22:07.143Z,100859.03
2018-06-05T06:24:36.865Z,100853.96
2018-06-05T06:27:06.700Z,100864.73
2018-06-05T06:29:37.260Z,100866.45
2018-06-05T06:32:09.487Z,100865.22
2018-06-05T06:34:40.352Z,100864.03
2018-06-05T06:37:10.651Z,100863.70
2018-06-05T06:39:40.904Z,100861.55
2018-06-05T06:42:10.750Z,100861.36
2018-06-05T06:44:40.576Z,100867.92
2018-06-05T06:47:10.838Z,100866.85
2018-06-05T06:49:40.553Z,100868.30
2018-06-05T06:52:11.561Z,100869.28
2018-06-05T06:54:41.792Z,100876.06
2018-06-05T06:57:13.548Z,100873.30
2018-06-05T06:59:43.384Z,100874.44
2018-06-05T07:02:14.766Z,100880.97
2018-06-05T07:04:44.641Z,100881.50
2018-06-05T07:07:15.662Z,100879.41
2018-06-05T07:09:46.585Z,100876.50
2018-06-05T07:12:16.569Z,100881.83
2018-06-05T07:14:46.684Z,100884.55
2018-06-05T07:17:22.183Z,100890.27
2018-06-05T07:19:52.805Z,100884.17
2018-06-05T07:22:25.808Z,100883.89
2018-06-05T07:24:56.731Z,100890.45
2018-06-05T07:27:28.136Z,100892.45
2018-06-05T07:30:01.525Z,100883.98
2018-06-05T07:32:31.720Z,100886.70
2018-06-05T07:35:02.749Z,100887.97
2018-06-05T07:37:33.683Z,100887.59
2018-06-05T07:40:04.652Z,100891.59
2018-06-05T07:42:34.647Z,100898.37
2018-06-05T07:45:05.041Z,100900.56
2018-06-05T07:47:35.631Z,100899.80
2018-06-05T07:50:06.479Z,100905.06
2018-06-05T07:52:37.263Z,100900.75
2018-06-05T07:55:07.869Z,100899.31
2018-06-05T07:57:38.920Z,100898.61
2018-06-05T08:00:08.706Z,100903.75
2018-06-05T08:02:40.245Z,100904.57
2018-06-05T08:05:10.066Z,100905.30
2018-06-05T08:07:40.658Z,100905.63
2018-06-05T08:10:10.606Z,100915.52
2018-06-05T08:12:41.341Z,100912.25
2018-06-05T08:15:11.331Z,100915.08
2018-06-05T08:17:41.913Z,100915.59
2018-06-05T08:20:11.811Z,100916.27
2018-06-05T08:22:56.291Z,100917.12
2018-06-05T08:25:26.246Z,100922.09
2018-06-05T08:27:56.052Z,100924.91
2018-06-05T08:30:26.889Z,100925.00
2018-06-05T08:32:58.411Z,100929.26
2018-06-05T08:35:28.740Z,100933.25
2018-06-05T08:38:01.272Z,100934.70
2018-06-05T08:40:31.294Z,100932.51
2018-06-05T08:43:01.818Z,100931.67
2018-06-05T08:45:32.253Z,100945.05
2018-06-05T08:48:02.241Z,100946.15
2018-06-05T08:50:32.682Z,100942.31
2018-06-05T08:53:03.096Z,100942.20
2018-06-05T08:55:33.591Z,100943.11
2018-06-05T08:58:04.016Z,100943.11
2018-06-05T09:00:34.451Z,100946.27
2018-06-05T09:03:04.297Z,100948.75
2018-06-05T09:05:34.838Z,100945.17
2018-06-05T09:08:08.813Z,100946.70
2018-06-05T09:10:39.555Z,100952.16
2018-06-05T09:13:09.347Z,100944.11
2018-06-05T09:15:40.466Z,100948.70
2018-06-05T09:18:12.100Z,100940.36
2018-06-05T09:20:43.744Z,100947.77
2018-06-05T09:23:14.133Z,100944.56
2018-06-05T09:25:45.506Z,100949.11
2018-06-05T09:28:15.300Z,100949.88
2018-06-05T09:30:45.980Z,100952.37
2018-06-05T09:33:15.685Z,100950.13
2018-06-05T09:35:46.457Z,100956.03
2018-06-05T09:38:17.357Z,100953.33
2018-06-05T09:40:47.096Z,100955.28
2018-06-05T09:43:18.334Z,100952.20
2018-06-05T09:45:51.341Z,100955.93
2018-06-05T09:48:24.576Z,100958.71
2018-06-05T09:51:00.178Z,100954.20
2018-06-05T09:53:30.873Z,100955.14
2018-06-05T09:56:01.292Z,100955.95
2018-06-05T09:58:32.173Z,100951.64
2018-06-05T10:01:04.966Z,100957.30
2018-06-05T10:03:35.763Z,100954.09
2018-06-05T10:06:05.676Z,100957.25
2018-06-05T10:08:35.544Z,100954.57
2018-06-05T10:11:06.243Z,100955.10
2018-06-05T10:13:36.178Z,100952.17
2018-06-05T10:16:29.394Z,100949.37
2018-06-05T10:19:22.633Z,100950.67
2018-06-05T10:22:22.632Z,100945.77
2018-06-05T10:24:53.829Z,100944.98
2018-06-05T10:27:24.003Z,100947.23
2018-06-05T10:29:54.793Z,100947.09
2018-06-05T10:32:26.148Z,100943.06
2018-06-05T10:34:57.228Z,100937.43
2018-06-05T10:37:27.692Z,100941.23
2018-06-05T10:39:58.775Z,100944.08
2018-06-05T10:42:29.120Z,100950.64
2018-06-05T10:44:59.016Z,100943.70
2018-06-05T10:47:29.467Z,100943.64
2018-06-05T10:49:59.251Z,100946.43
2018-06-05T10:52:29.201Z,100938.02
2018-06-05T10:54:59.156Z,100933.73
2018-06-05T10:57:29.828Z,100930.89
2018-06-05T11:00:00.947Z,100931.27
2018-06-05T11:02:31.135Z,100932.80
2018-06-05T11:05:00.907Z,100930.77
2018-06-05T11:07:30.878Z,100935.41
2018-06-05T11:10:04.273Z,100926.27
2018-06-05T11:12:34.037Z,100937.42
2018-06-05T11:15:03.885Z,100931.08
2018-06-05T11:17:33.890Z,100921.92
2018-06-05T11:20:03.937Z,100919.71
2018-06-05T11:22:35.289Z,100917.63
2018-06-05T11:25:06.787Z,100913.59
2018-06-05T11:27:36.736Z,100917.06
2018-06-05T11:30:07.121Z,100907.81
2018-06-05T11:32:36.991Z,100905.06
2018-06-05T11:35:07.297Z,100904.73
2018-06-05T11:37:37.616Z,100906.70
2018-06-05T11:40:07.685Z,100901.33
2018-06-05T11:42:37.453Z,100902.52
2018-06-05T11:45:07.601Z,100908.15
2018-06-05T11:47:38.107Z,100902.30
2018-06-05T11:50:08.515Z,100901.69
2018-06-05T11:52:39.253Z,100906.81
2018-06-05T11:55:10.246Z,100896.73
2018-06-05T11:57:42.713Z,100891.23
2018-06-05T12:00:12.619Z,100885.95
2018-06-05T12:02:44.374Z,100891.47
2018-06-05T12:05:15.055Z,100879.56
2018-06-05T12:07:48.257Z,100882.41
2018-06-05T12:10:19.162Z,100871.84
2018-06-05T12:12:49.888Z,100866.23
2018-06-05T12:15:20.260Z,100870.61
2018-06-05T12:17:51.145Z,100864.13
2018-06-05T12:20:21.208Z,100862.12
2018-06-05T12:22:53.291Z,100853.82
2018-06-05T12:25:24.549Z,100853.44
2018-06-05T12:27:57.121Z,100852.83
2018-06-05T12:30:27.398Z,100853.14
2018-06-05T12:32:59.119Z,100842.67
2018-06-05T12:35:30.220Z,100842.48
2018-06-05T12:38:00.649Z,100846.39
2018-06-05T12:40:31.346Z,100842.45
2018-06-05T12:43:01.342Z,100852.88
2018-06-05T12:45:33.812Z,100851.38
2018-06-05T12:48:04.786Z,100850.43
2018-06-05T12:50:34.672Z,100845.38
2018-06-05T12:53:06.101Z,100842.72
2018-06-05T12:55:36.228Z,100842.00
2018-06-05T12:58:07.135Z,100828.23
2018-06-05T13:00:37.408Z,100829.89
2018-06-05T13:03:08.324Z,100837.14
2018-06-05T13:05:38.760Z,100835.93
2018-06-05T13:08:09.676Z,100828.75
2018-06-05T13:10:40.428Z,100829.14
2018-06-05T13:13:10.148Z,100825.96
2018-06-05T13:15:43.400Z,100831.89
2018-06-05T13:18:13.804Z,100831.18
2018-06-05T13:20:45.277Z,100820.47
2018-06-05T13:23:15.683Z,100820.88
2018-06-05T13:25:45.718Z,100817.23
2018-06-05T13:28:17.649Z,100817.50
2018-06-05T13:30:49.686Z,100813.50
2018-06-05T13:33:22.101Z,100820.46
2018-06-05T13:35:52.655Z,100816.13
2018-06-05T13:38:24.971Z,100814.43
2018-06-05T13:40:55.225Z,100808.15
2018-06-05T13:43:27.303Z,100812.19
2018-06-05T13:45:57.816Z,100811.99
2018-06-05T13:48:29.877Z,100802.97
2018-06-05T13:51:03.241Z,100801.38
2018-06-05T13:53:34.201Z,100797.04
2018-06-05T13:56:05.965Z,100795.63
2018-06-05T13:58:36.477Z,100796.08
2018-06-05T14:01:10.619Z,100794.31
2018-06-05T14:03:40.905Z,100790.38
2018-06-05T14:06:11.633Z,100794.35
2018-06-05T14:08:42.811Z,100782.33
2018-06-05T14:11:14.753Z,100784.77
2018-06-05T14:13:44.776Z,100779.09
2018-06-05T14:16:18.687Z,100783.33
2018-06-05T14:18:49.593Z,100779.83
2018-06-05T14:21:19.456Z,100775.57
2018-06-05T14:23:49.497Z,100774.70
2018-06-05T14:26:22.111Z,100774.63
2018-06-05T14:28:53.353Z,100781.19
2018-06-05T14:31:23.418Z,100771.80
2018-06-05T14:33:54.418Z,100775.25
2018-06-05T14:36:24.612Z,100769.00
2018-06-05T14:38:55.203Z,100773.06
2018-06-05T14:41:26.021Z,100779.27
2018-06-05T14:43:57.283Z,100771.42
2018-06-05T14:46:28.343Z,100767.30
2018-06-05T14:48:58.859Z,100757.19
2018-06-05T14:51:28.867Z,100756.05
2018-06-05T14:53:59.587Z,100756.09
2018-06-05T14:56:30.343Z,100750.45
2018-06-05T14:59:01.359Z,100746.64
2018-06-05T15:01:32.297Z,100750.95
2018-06-05T15:04:02.435Z,100742.61
2018-06-05T15:06:32.753Z,100745.23
2018-06-05T15:09:05.558Z,100735.41
2018-06-05T15:11:37.148Z,100735.98
2018-06-05T15:14:08.511Z,100736.34
2018-06-05T15:16:40.866Z,100736.34
2018-06-05T15:19:12.226Z,100730.73
2018-06-05T15:21:42.475Z,100726.97
2018-06-05T15:24:13.128Z,100729.84
2018-06-05T15:26:45.668Z,100723.48
2018-06-05T15:29:15.929Z,100730.27
2018-06-05T15:31:47.313Z,100728.75
2018-06-05T15:34:18.040Z,100725.11
2018-06-05T15:36:48.793Z,100729.92
2018-06-05T15:39:21.746Z,100721.72
2018-06-05T15:41:51.495Z,100724.37
2018-06-05T15:44:22.147Z,100719.44
2018-06-05T15:46:51.990Z,100712.52
2018-06-05T15:49:22.828Z,100718.11
2018-06-05T15:51:52.607Z,100715.41
2018-06-05T15:54:22.498Z,100708.66
2018-06-05T15:56:52.423Z,100712.15
2018-06-05T15:59:23.429Z,100714.20
2018-06-05T16:01:53.449Z,100710.27
2018-06-05T16:04:23.202Z,100705.44
2018-06-05T16:06:53.325Z,100705.14
2018-06-05T16:09:23.032Z,100716.67
2018-06-05T16:11:53.497Z,100709.94
2018-06-05T16:14:23.616Z,100712.31
2018-06-05T16:16:53.536Z,100706.56
2018-06-05T16:19:24.477Z,100702.80
2018-06-05T16:21:55.886Z,100696.91
2018-06-05T16:24:25.796Z,100691.45
2018-06-05T16:26:56.663Z,100695.16
2018-06-05T16:29:27.626Z,100695.11
2018-06-05T16:31:58.793Z,100695.96
2018-06-05T16:34:28.667Z,100686.26
2018-06-05T16:36:59.275Z,100687.31
2018-06-05T16:39:30.601Z,100686.84
2018-06-05T16:42:00.774Z,100684.30
2018-06-05T16:44:31.231Z,100677.50
2018-06-05T16:47:00.986Z,100683.48
2018-06-05T16:49:30.760Z,100681.41
2018-06-05T16:52:02.782Z,100684.44
2018-06-05T16:54:32.676Z,100686.32
2018-06-05T16:57:02.403Z,100692.30
2018-06-05T16:59:32.318Z,100690.14
2018-06-05T17:02:02.078Z,100695.88
2018-06-05T17:04:32.678Z,100695.98
2018-06-05T17:07:03.381Z,100695.01
2018-06-05T17:09:33.844Z,100696.48
2018-06-05T17:12:03.844Z,100694.42
2018-06-05T17:14:33.852Z,100697.86
2018-06-05T17:17:03.666Z,100699.61
2018-06-05T17:19:35.100Z,100704.41
2018-06-05T17:22:05.752Z,100707.05
2018-06-05T17:24:35.773Z,100707.33
2018-06-05T17:27:07.112Z,100704.38
2018-06-05T17:29:37.084Z,100709.23
2018-06-05T17:32:09.683Z,100707.77
2018-06-05T17:34:42.941Z,100715.95
2018-06-05T17:37:13.074Z,100713.76
2018-06-05T17:48:58.746Z,100716.48
2018-06-05T17:51:38.426Z,100719.27
2018-06-05T17:54:09.226Z,100715.00
2018-06-05T17:56:39.761Z,100716.58
2018-06-05T17:59:10.710Z,100713.41
2018-06-05T18:01:41.326Z,100706.28
2018-06-05T18:04:12.636Z,100717.30
2018-06-05T18:06:42.483Z,100712.78
2018-06-05T18:09:13.130Z,100712.70
2018-06-05T18:11:44.639Z,100717.59
2018-06-05T18:14:16.280Z,100717.59
2018-06-05T18:16:46.237Z,100714.23
2018-06-05T18:19:16.658Z,100716.28
2018-06-05T18:21:47.280Z,100713.70
2018-06-05T18:24:18.327Z,100723.67
2018-06-05T18:26:50.003Z,100725.98
2018-06-05T18:29:19.806Z,100727.95
2018-06-05T18:31:51.296Z,100725.32
2018-06-05T18:34:20.955Z,100725.82
2018-06-05T18:36:52.774Z,100727.12
2018-06-05T18:39:24.640Z,100728.69
2018-06-05T18:41:54.946Z,100728.67
2018-06-05T18:44:24.718Z,100729.60
2018-06-05T18:46:55.437Z,100731.94
2018-06-05T18:49:26.734Z,100733.30
2018-06-05T18:51:58.428Z,100734.81
2018-06-05T18:54:28.377Z,100741.17
2018-06-05T18:56:59.243Z,100739.98
2018-06-05T18:59:29.093Z,100742.33
2018-06-05T19:01:58.955Z,100743.03
2018-06-05T19:04:29.179Z,100751.76
2018-06-05T19:06:59.861Z,100747.86
2018-06-05T19:09:30.685Z,100759.05
2018-06-05T19:12:00.944Z,100758.73
2018-06-05T19:14:31.793Z,100762.48
2018-06-05T19:17:01.633Z,100769.33
2018-06-05T19:19:31.917Z,100765.98
2018-06-05T19:22:03.042Z,100777.77
2018-06-05T19:24:33.048Z,100776.58
2018-06-05T19:27:03.982Z,100779.89
2018-06-05T19:29:34.786Z,100781.31
2018-06-05T19:32:04.984Z,100787.28
2018-06-05T19:34:34.839Z,100786.95
2018-06-05T19:37:05.001Z,100789.67
2018-06-05T19:39:35.803Z,100791.61
2018-06-05T19:42:05.577Z,100789.73
2018-06-05T19:44:36.930Z,100796.69
2018-06-05T19:47:06.776Z,100796.22
2018-06-05T19:49:37.279Z,100799.86
2018-06-05T19:52:08.195Z,100802.50
2018-06-05T19:54:39.720Z,100803.09
2018-06-05T19:57:10.180Z,100807.70
2018-06-05T19:59:39.603Z,100804.69
2018-06-05T20:02:12.085Z,100804.39
2018-06-05T20:04:41.944Z,100803.14
2018-06-05T20:07:12.841Z,100801.59
2018-06-05T20:09:44.025Z,100810.47
2018-06-05T20:12:13.746Z,100809.63
2018-06-05T20:14:43.731Z,100816.09
2018-06-05T20:17:13.714Z,100817.00
2018-06-05T20:19:43.936Z,100815.91
2018-06-05T20:22:14.753Z,100815.52
2018-06-05T20:24:44.962Z,100819.05
2018-06-05T20:27:15.102Z,100821.52
2018-06-05T20:29:46.227Z,100823.73
2018-06-05T20:32:17.692Z,100823.73
2018-06-05T20:34:49.861Z,100822.88
2018-06-05T20:37:20.183Z,100822.88
2018-06-05T20:39:49.963Z,100827.05
2018-06-05T20:42:22.249Z,100833.20
2018-06-05T20:44:52.917Z,100834.20
2018-06-05T20:47:24.827Z,100842.20
2018-06-05T20:49:56.956Z,100845.09
2018-06-05T20:52:27.377Z,100855.20
2018-06-05T20:54:57.372Z,100862.34
2018-06-05T20:57:29.218Z,100856.06
2018-06-05T21:00:01.795Z,100862.70
2018-06-05T21:02:32.375Z,100859.14
2018-06-05T21:05:02.620Z,100858.03
2018-06-05T21:07:32.401Z,100856.57
2018-06-05T21:10:03.037Z,100859.39
2018-06-05T21:12:34.461Z,100864.36
2018-06-05T21:15:04.843Z,100867.83
2018-06-05T21:17:35.686Z,100863.34
2018-06-05T21:20:06.056Z,100863.40
2018-06-05T21:22:42.409Z,100866.55
2018-06-05T21:25:12.469Z,100871.73
2018-06-05T21:27:43.913Z,100871.38
2018-06-05T21:30:15.334Z,100869.45
2018-06-05T21:32:46.451Z,100868.28
2018-06-05T21:35:16.346Z,100873.50
2018-06-05T21:37:50.394Z,100872.80
2018-06-05T21:40:23.036Z,100874.83
2018-06-05T21:42:53.671Z,100881.69
2018-06-05T21:45:25.039Z,100879.91
2018-06-05T21:47:56.838Z,100890.28
2018-06-05T21:50:27.074Z,100895.45
2018-06-05T21:52:57.391Z,100894.65
2018-06-05T21:55:27.091Z,100906.22
2018-06-05T21:57:57.185Z,100905.95
2018-06-05T22:00:27.227Z,100903.88
2018-06-05T22:02:56.976Z,100904.64
2018-06-05T22:05:27.295Z,100902.28
2018-06-05T22:07:56.976Z,100902.73
2018-06-05T22:10:28.007Z,100907.11
2018-06-05T22:12:57.995Z,100902.06
2018-06-05T22:15:28.650Z,100903.90
2018-06-05T22:17:58.770Z,100903.62
2018-06-05T22:20:28.630Z,100907.59
2018-06-05T22:22:58.412Z,100905.83
2018-06-05T22:25:28.615Z,100914.70
2018-06-05T22:27:58.635Z,100912.21
2018-06-05T22:30:28.503Z,100911.81
2018-06-05T22:32:59.990Z,100919.36
2018-06-05T22:35:31.648Z,100919.57
2018-06-05T22:38:02.026Z,100917.78
2018-06-05T22:40:32.633Z,100914.92
2018-06-05T22:43:02.408Z,100918.16
2018-06-05T22:45:32.360Z,100912.53
2018-06-05T22:48:03.880Z,100911.34
2018-06-05T22:50:34.527Z,100909.27
2018-06-05T22:53:05.526Z,100911.89
2018-06-05T22:55:35.465Z,100905.90
2018-06-05T22:58:05.189Z,100905.09
2018-06-05T23:00:35.809Z,100908.39
2018-06-05T23:03:05.658Z,100911.86
2018-06-05T23:05:35.997Z,100908.92
2018-06-05T23:08:05.918Z,100905.63
2018-06-05T23:10:38.489Z,100909.98
2018-06-05T23:13:09.423Z,100911.30
2018-06-05T23:15:39.876Z,100914.02
2018-06-05T23:18:10.475Z,100920.26
2018-06-05T23:20:40.520Z,100919.97
2018-06-05T23:23:11.073Z,100923.55
2018-06-05T23:25:45.262Z,100922.41
2018-06-05T23:28:15.086Z,100925.92
2018-06-05T23:30:44.812Z,100929.09
2018-06-05T23:33:15.415Z,100925.70
2018-06-05T23:35:46.228Z,100924.12
2018-06-05T23:38:16.263Z,100926.31
2018-06-05T23:40:46.203Z,100923.42
2018-06-05T23:43:16.208Z,100934.82
2018-06-05T23:45:46.801Z,100941.34
2018-06-05T23:48:17.355Z,100938.81
2018-06-05T23:50:47.797Z,100942.20
2018-06-05T23:53:18.467Z,100943.61
2018-06-05T23:55:49.859Z,100938.44
2018-06-05T23:58:20.347Z,100945.25
